sensor_id;sensor_type;location;lat;lon;timestamp;pressure;altitude;pressure_sealevel;temperature;humidity
72038;BME280;59900;50.788;12.904;2023-10-09T00:00:26;97984.63;;;11.68;85.01
72038;BME280;59900;50.788;12.904;2023-10-09T00:03:04;97990.09;;;11.67;85.11
72038;BME280;59900;50.788;12.904;2023-10-09T00:05:30;97977.09;;;11.65;85.48
72038;BME280;59900;50.788;12.904;2023-10-09T00:08:11;97974.91;;;11.69;86.01
72038;BME280;59900;50.788;12.904;2023-10-09T00:10:44;97978.00;;;11.72;85.91
72038;BME280;59900;50.788;12.904;2023-10-09T00:13:24;97972.75;;;11.72;86.31
72038;BME280;59900;50.788;12.904;2023-10-09T00:16:04;97974.38;;;11.73;86.64
72038;BME280;59900;50.788;12.904;2023-10-09T00:18:40;97973.34;;;11.74;86.96
72038;BME280;59900;50.788;12.904;2023-10-09T00:21:18;97963.66;;;11.75;87.23
72038;BME280;59900;50.788;12.904;2023-10-09T00:23:48;97943.84;;;11.79;87.29
72038;BME280;59900;50.788;12.904;2023-10-09T00:26:20;97927.81;;;11.80;87.65
72038;BME280;59900;50.788;12.904;2023-10-09T00:28:46;97924.81;;;11.84;87.54
72038;BME280;59900;50.788;12.904;2023-10-09T00:31:17;97911.63;;;11.84;88.09
72038;BME280;59900;50.788;12.904;2023-10-09T00:33:51;97903.56;;;11.85;88.20
72038;BME280;59900;50.788;12.904;2023-10-09T00:36:17;97923.59;;;11.86;88.51
72038;BME280;59900;50.788;12.904;2023-10-09T00:38:52;97922.03;;;11.92;88.60
72038;BME280;59900;50.788;12.904;2023-10-09T00:41:17;97922.25;;;11.97;88.07
72038;BME280;59900;50.788;12.904;2023-10-09T00:43:47;97906.25;;;11.98;88.49
72038;BME280;59900;50.788;12.904;2023-10-09T00:46:15;97916.38;;;12.01;88.46
72038;BME280;59900;50.788;12.904;2023-10-09T00:48:45;97911.75;;;12.03;88.77
72038;BME280;59900;50.788;12.904;2023-10-09T00:51:13;97897.16;;;12.07;88.67
72038;BME280;59900;50.788;12.904;2023-10-09T00:53:48;97902.06;;;12.10;88.41
72038;BME280;59900;50.788;12.904;2023-10-09T00:56:17;97895.19;;;12.09;88.42
72038;BME280;59900;50.788;12.904;2023-10-09T00:59:07;97891.50;;;12.10;88.95
72038;BME280;59900;50.788;12.904;2023-10-09T01:01:40;97883.03;;;12.15;88.79
72038;BME280;59900;50.788;12.904;2023-10-09T01:04:10;97878.16;;;12.18;89.14
72038;BME280;59900;50.788;12.904;2023-10-09T01:06:38;97869.47;;;12.18;89.14
72038;BME280;59900;50.788;12.904;2023-10-09T01:09:10;97871.88;;;12.19;89.22
72038;BME280;59900;50.788;12.904;2023-10-09T01:11:37;97855.91;;;12.21;89.26
72038;BME280;59900;50.788;12.904;2023-10-09T01:14:28;97852.22;;;12.22;89.31
72038;BME280;59900;50.788;12.904;2023-10-09T01:16:53;97851.84;;;12.25;89.34
72038;BME280;59900;50.788;12.904;2023-10-09T01:19:22;97851.25;;;12.29;89.43
72038;BME280;59900;50.788;12.904;2023-10-09T01:21:53;97841.50;;;12.30;89.30
72038;BME280;59900;50.788;12.904;2023-10-09T01:24:20;97840.31;;;12.32;89.32
72038;BME280;59900;50.788;12.904;2023-10-09T01:26:46;97844.81;;;12.39;89.52
72038;BME280;59900;50.788;12.904;2023-10-09T01:29:19;97838.09;;;12.43;89.13
72038;BME280;59900;50.788;12.904;2023-10-09T01:31:51;97835.66;;;12.48;88.82
72038;BME280;59900;50.788;12.904;2023-10-09T01:34:32;97824.53;;;12.52;88.91
72038;BME280;59900;50.788;12.904;2023-10-09T01:37:08;97817.03;;;12.56;89.44
72038;BME280;59900;50.788;12.904;2023-10-09T01:39:55;97816.66;;;12.59;89.17
72038;BME280;59900;50.788;12.904;2023-10-09T01:42:24;97819.66;;;12.62;89.13
72038;BME280;59900;50.788;12.904;2023-10-09T01:44:56;97809.34;;;12.61;89.13
72038;BME280;59900;50.788;12.904;2023-10-09T01:47:23;97807.31;;;12.63;89.67
72038;BME280;59900;50.788;12.904;2023-10-09T01:49:51;97808.94;;;12.64;89.59
72038;BME280;59900;50.788;12.904;2023-10-09T01:52:18;97789.47;;;12.65;89.70
72038;BME280;59900;50.788;12.904;2023-10-09T01:54:46;97788.44;;;12.66;89.97
72038;BME280;59900;50.788;12.904;2023-10-09T01:57:16;97785.81;;;12.66;89.88
72038;BME280;59900;50.788;12.904;2023-10-09T01:59:48;97789.84;;;12.68;90.16
72038;BME280;59900;50.788;12.904;2023-10-09T02:02:18;97793.53;;;12.67;91.26
72038;BME280;59900;50.788;12.904;2023-10-09T02:05:04;97782.56;;;12.64;90.89
72038;BME280;59900;50.788;12.904;2023-10-09T02:07:51;97778.72;;;12.66;91.66
72038;BME280;59900;50.788;12.904;2023-10-09T02:10:20;97778.13;;;12.71;91.87
72038;BME280;59900;50.788;12.904;2023-10-09T02:12:59;97776.91;;;12.73;91.68
72038;BME280;59900;50.788;12.904;2023-10-09T02:15:29;97765.53;;;12.73;92.71
72038;BME280;59900;50.788;12.904;2023-10-09T02:18:18;97763.28;;;12.70;94.61
72038;BME280;59900;50.788;12.904;2023-10-09T02:23:39;97752.13;;;12.74;96.70
72038;BME280;59900;50.788;12.904;2023-10-09T02:26:12;97754.34;;;12.77;96.82
72038;BME280;59900;50.788;12.904;2023-10-09T02:28:54;97746.25;;;12.79;97.15
72038;BME280;59900;50.788;12.904;2023-10-09T02:31:29;97746.84;;;12.81;97.41
72038;BME280;59900;50.788;12.904;2023-10-09T02:34:04;97737.94;;;12.82;97.31
72038;BME280;59900;50.788;12.904;2023-10-09T02:36:30;97729.41;;;12.80;97.66
72038;BME280;59900;50.788;12.904;2023-10-09T02:38:55;97731.63;;;12.83;98.21
72038;BME280;59900;50.788;12.904;2023-10-09T02:41:21;97726.56;;;12.81;98.22
72038;BME280;59900;50.788;12.904;2023-10-09T02:43:47;97728.19;;;12.82;98.68
72038;BME280;59900;50.788;12.904;2023-10-09T02:46:18;97718.44;;;12.83;98.88
72038;BME280;59900;50.788;12.904;2023-10-09T02:48:49;97701.59;;;12.84;98.42
72038;BME280;59900;50.788;12.904;2023-10-09T02:51:24;97705.25;;;12.83;98.45
72038;BME280;59900;50.788;12.904;2023-10-09T02:53:53;97694.69;;;12.83;99.04
72038;BME280;59900;50.788;12.904;2023-10-09T02:56:21;97686.38;;;12.86;100.00
72038;BME280;59900;50.788;12.904;2023-10-09T02:58:52;97687.00;;;12.88;100.00
72038;BME280;59900;50.788;12.904;2023-10-09T03:01:17;97688.19;;;12.92;100.00
72038;BME280;59900;50.788;12.904;2023-10-09T03:03:43;97684.94;;;12.97;100.00
72038;BME280;59900;50.788;12.904;2023-10-09T03:06:15;97672.94;;;13.01;100.00
72038;BME280;59900;50.788;12.904;2023-10-09T03:08:53;97658.94;;;13.07;100.00
72038;BME280;59900;50.788;12.904;2023-10-09T03:11:20;97658.94;;;13.13;100.00
72038;BME280;59900;50.788;12.904;2023-10-09T03:13:45;97636.19;;;13.19;100.00
72038;BME280;59900;50.788;12.904;2023-10-09T03:16:13;97645.09;;;13.24;100.00
72038;BME280;59900;50.788;12.904;2023-10-09T03:18:46;97657.66;;;13.29;100.00
72038;BME280;59900;50.788;12.904;2023-10-09T03:21:12;97656.22;;;13.33;100.00
72038;BME280;59900;50.788;12.904;2023-10-09T03:23:37;97654.59;;;13.38;100.00
72038;BME280;59900;50.788;12.904;2023-10-09T03:26:03;97653.34;;;13.41;100.00
72038;BME280;59900;50.788;12.904;2023-10-09T03:28:29;97658.81;;;13.46;100.00
72038;BME280;59900;50.788;12.904;2023-10-09T03:30:54;97643.56;;;13.48;100.00
72038;BME280;59900;50.788;12.904;2023-10-09T03:33:20;97646.59;;;13.52;99.87
72038;BME280;59900;50.788;12.904;2023-10-09T03:35:45;97650.63;;;13.54;99.53
72038;BME280;59900;50.788;12.904;2023-10-09T03:38:10;97645.75;;;13.58;99.32
72038;BME280;59900;50.788;12.904;2023-10-09T03:40:42;97637.41;;;13.61;98.68
72038;BME280;59900;50.788;12.904;2023-10-09T03:43:09;97641.44;;;13.63;98.38
72038;BME280;59900;50.788;12.904;2023-10-09T03:45:36;97645.06;;;13.69;98.14
72038;BME280;59900;50.788;12.904;2023-10-09T03:48:04;97649.91;;;13.72;98.12
72038;BME280;59900;50.788;12.904;2023-10-09T03:50:46;97656.41;;;13.76;97.81
72038;BME280;59900;50.788;12.904;2023-10-09T03:53:13;97648.06;;;13.79;97.29
72038;BME280;59900;50.788;12.904;2023-10-09T03:55:39;97645.00;;;13.82;96.80
72038;BME280;59900;50.788;12.904;2023-10-09T03:58:05;97642.13;;;13.83;96.85
72038;BME280;59900;50.788;12.904;2023-10-09T04:00:32;97652.50;;;13.85;96.46
72038;BME280;59900;50.788;12.904;2023-10-09T04:03:06;97656.53;;;13.87;96.13
72038;BME280;59900;50.788;12.904;2023-10-09T04:05:31;97646.16;;;13.86;95.76
72038;BME280;59900;50.788;12.904;2023-10-09T04:07:56;97643.53;;;13.86;95.84
72038;BME280;59900;50.788;12.904;2023-10-09T04:10:23;97649.84;;;13.85;96.13
72038;BME280;59900;50.788;12.904;2023-10-09T04:13:07;97641.69;;;13.86;95.53
72038;BME280;59900;50.788;12.904;2023-10-09T04:15:38;97653.06;;;13.87;95.60
72038;BME280;59900;50.788;12.904;2023-10-09T04:18:07;97638.03;;;13.87;95.44
72038;BME280;59900;50.788;12.904;2023-10-09T04:20:40;97652.06;;;13.88;95.25
72038;BME280;59900;50.788;12.904;2023-10-09T04:23:23;97651.25;;;13.87;94.75
72038;BME280;59900;50.788;12.904;2023-10-09T04:26:00;97636.22;;;13.88;94.63
72038;BME280;59900;50.788;12.904;2023-10-09T04:28:35;97643.09;;;13.89;94.45
72038;BME280;59900;50.788;12.904;2023-10-09T04:31:01;97648.59;;;13.87;94.50
72038;BME280;59900;50.788;12.904;2023-10-09T04:33:31;97644.13;;;13.88;94.54
72038;BME280;59900;50.788;12.904;2023-10-09T04:36:03;97652.06;;;13.88;94.48
72038;BME280;59900;50.788;12.904;2023-10-09T04:39:00;97638.25;;;13.86;94.35
72038;BME280;59900;50.788;12.904;2023-10-09T04:41:31;97644.13;;;13.88;94.31
72038;BME280;59900;50.788;12.904;2023-10-09T04:44:09;97644.97;;;13.88;94.11
72038;BME280;59900;50.788;12.904;2023-10-09T04:46:41;97645.97;;;13.87;94.27
72038;BME280;59900;50.788;12.904;2023-10-09T04:49:12;97636.22;;;13.88;94.65
72038;BME280;59900;50.788;12.904;2023-10-09T04:51:54;97613.63;;;13.92;94.26
72038;BME280;59900;50.788;12.904;2023-10-09T04:54:43;97613.78;;;13.97;93.67
72038;BME280;59900;50.788;12.904;2023-10-09T04:57:27;97598.53;;;13.99;93.52
72038;BME280;59900;50.788;12.904;2023-10-09T04:59:52;97589.59;;;14.00;94.20
72038;BME280;59900;50.788;12.904;2023-10-09T05:02:23;97596.91;;;13.98;94.16
72038;BME280;59900;50.788;12.904;2023-10-09T05:04:49;97598.53;;;13.99;94.29
72038;BME280;59900;50.788;12.904;2023-10-09T05:07:34;97584.31;;;14.00;93.94
72038;BME280;59900;50.788;12.904;2023-10-09T05:10:18;97581.44;;;14.01;94.09
72038;BME280;59900;50.788;12.904;2023-10-09T05:12:49;97588.78;;;13.99;94.26
72038;BME280;59900;50.788;12.904;2023-10-09T05:15:23;97592.47;;;13.92;94.80
72038;BME280;59900;50.788;12.904;2023-10-09T05:17:52;97589.25;;;13.90;95.28
72038;BME280;59900;50.788;12.904;2023-10-09T05:20:24;97586.03;;;13.88;95.23
72038;BME280;59900;50.788;12.904;2023-10-09T05:22:53;97589.91;;;13.85;95.06
72038;BME280;59900;50.788;12.904;2023-10-09T05:25:23;97589.09;;;13.85;95.75
72038;BME280;59900;50.788;12.904;2023-10-09T05:28:08;97599.84;;;13.83;95.17
72038;BME280;59900;50.788;12.904;2023-10-09T05:30:52;97587.47;;;13.84;95.30
72038;BME280;59900;50.788;12.904;2023-10-09T05:33:31;97602.31;;;13.85;95.19
72038;BME280;59900;50.788;12.904;2023-10-09T05:36:00;97583.81;;;13.85;95.20
72038;BME280;59900;50.788;12.904;2023-10-09T05:38:44;97589.91;;;13.85;95.71
72038;BME280;59900;50.788;12.904;2023-10-09T05:41:23;97595.19;;;13.85;95.97
72038;BME280;59900;50.788;12.904;2023-10-09T05:44:07;97575.88;;;13.85;96.23
72038;BME280;59900;50.788;12.904;2023-10-09T05:46:51;97587.03;;;13.87;96.22
72038;BME280;59900;50.788;12.904;2023-10-09T05:49:35;97597.03;;;13.85;96.72
72038;BME280;59900;50.788;12.904;2023-10-09T05:52:21;97584.25;;;13.82;96.81
72038;BME280;59900;50.788;12.904;2023-10-09T05:54:57;97596.63;;;13.81;97.61
72038;BME280;59900;50.788;12.904;2023-10-09T05:57:46;97598.47;;;13.81;97.32
72038;BME280;59900;50.788;12.904;2023-10-09T06:00:20;97601.91;;;13.81;96.77
72038;BME280;59900;50.788;12.904;2023-10-09T06:03:04;97604.31;;;13.83;96.99
72038;BME280;59900;50.788;12.904;2023-10-09T06:05:49;97606.78;;;13.84;97.05
72038;BME280;59900;50.788;12.904;2023-10-09T06:08:26;97609.78;;;13.88;96.75
72038;BME280;59900;50.788;12.904;2023-10-09T06:11:07;97617.28;;;13.91;96.91
72038;BME280;59900;50.788;12.904;2023-10-09T06:13:51;97607.50;;;13.91;96.79
72038;BME280;59900;50.788;12.904;2023-10-09T06:16:28;97617.28;;;13.91;96.66
72038;BME280;59900;50.788;12.904;2023-10-09T06:19:13;97611.41;;;13.89;96.97
72038;BME280;59900;50.788;12.904;2023-10-09T06:21:46;97615.91;;;13.88;96.76
72038;BME280;59900;50.788;12.904;2023-10-09T06:24:18;97613.44;;;13.87;97.25
72038;BME280;59900;50.788;12.904;2023-10-09T06:26:45;97612.63;;;13.86;97.36
72038;BME280;59900;50.788;12.904;2023-10-09T06:29:26;97610.22;;;13.85;97.02
72038;BME280;59900;50.788;12.904;2023-10-09T06:32:02;97612.88;;;13.85;96.76
72038;BME280;59900;50.788;12.904;2023-10-09T06:35:06;97622.63;;;13.84;96.77
72038;BME280;59900;50.788;12.904;2023-10-09T06:37:51;97621.22;;;13.82;96.70
72038;BME280;59900;50.788;12.904;2023-10-09T06:43:15;97630.97;;;13.81;97.34
72038;BME280;59900;50.788;12.904;2023-10-09T06:45:46;97636.84;;;13.83;97.70
72038;BME280;59900;50.788;12.904;2023-10-09T06:48:19;97624.69;;;13.82;98.14
72038;BME280;59900;50.788;12.904;2023-10-09T06:51:04;97637.06;;;13.82;98.50
72038;BME280;59900;50.788;12.904;2023-10-09T06:53:48;97654.94;;;13.80;98.70
72038;BME280;59900;50.788;12.904;2023-10-09T06:56:20;97663.09;;;13.78;99.14
72038;BME280;59900;50.788;12.904;2023-10-09T06:59:01;97643.41;;;13.74;99.78
72038;BME280;59900;50.788;12.904;2023-10-09T07:01:42;97641.81;;;13.73;99.91
72038;BME280;59900;50.788;12.904;2023-10-09T07:04:08;97647.09;;;13.73;99.80
72038;BME280;59900;50.788;12.904;2023-10-09T07:06:52;97649.09;;;13.71;100.00
72038;BME280;59900;50.788;12.904;2023-10-09T07:09:18;97663.34;;;13.70;100.00
72038;BME280;59900;50.788;12.904;2023-10-09T07:14:16;97667.41;;;13.73;100.00
72038;BME280;59900;50.788;12.904;2023-10-09T07:16:57;97672.44;;;13.74;100.00
72038;BME280;59900;50.788;12.904;2023-10-09T07:19:24;97668.56;;;13.77;100.00
72038;BME280;59900;50.788;12.904;2023-10-09T07:22:11;97677.72;;;13.74;100.00
72038;BME280;59900;50.788;12.904;2023-10-09T07:24:56;97687.28;;;13.75;100.00
72038;BME280;59900;50.788;12.904;2023-10-09T07:27:31;97687.06;;;13.77;100.00
72038;BME280;59900;50.788;12.904;2023-10-09T07:30:10;97684.63;;;13.82;100.00
72038;BME280;59900;50.788;12.904;2023-10-09T07:32:55;97685.19;;;13.84;100.00
72038;BME280;59900;50.788;12.904;2023-10-09T07:35:21;97690.28;;;13.85;100.00
72038;BME280;59900;50.788;12.904;2023-10-09T07:38:15;97692.94;;;13.85;100.00
72038;BME280;59900;50.788;12.904;2023-10-09T07:40:47;97693.28;;;13.89;100.00
72038;BME280;59900;50.788;12.904;2023-10-09T07:43:35;97697.78;;;13.88;100.00
72038;BME280;59900;50.788;12.904;2023-10-09T07:46:08;97694.91;;;13.90;100.00
72038;BME280;59900;50.788;12.904;2023-10-09T07:48:52;97705.50;;;13.90;100.00
72038;BME280;59900;50.788;12.904;2023-10-09T07:51:18;97714.44;;;13.89;100.00
72038;BME280;59900;50.788;12.904;2023-10-09T07:53:54;97719.72;;;13.89;100.00
72038;BME280;59900;50.788;12.904;2023-10-09T07:56:25;97714.84;;;13.86;100.00
72038;BME280;59900;50.788;12.904;2023-10-09T07:58:56;97711.41;;;13.85;100.00
72038;BME280;59900;50.788;12.904;2023-10-09T08:01:25;97723.81;;;13.85;100.00
72038;BME280;59900;50.788;12.904;2023-10-09T08:03:54;97723.59;;;13.86;100.00
72038;BME280;59900;50.788;12.904;2023-10-09T08:06:25;97704.28;;;13.86;100.00
72038;BME280;59900;50.788;12.904;2023-10-09T08:09:09;97712.63;;;13.83;100.00
72038;BME280;59900;50.788;12.904;2023-10-09T08:11:39;97710.41;;;13.80;100.00
72038;BME280;59900;50.788;12.904;2023-10-09T08:14:10;97718.75;;;13.77;100.00
72038;BME280;59900;50.788;12.904;2023-10-09T08:16:54;97726.91;;;13.75;100.00
72038;BME280;59900;50.788;12.904;2023-10-09T08:19:39;97720.41;;;13.71;100.00
72038;BME280;59900;50.788;12.904;2023-10-09T08:22:28;97718.41;;;13.67;100.00
72038;BME280;59900;50.788;12.904;2023-10-09T08:24:54;97729.41;;;13.64;100.00
72038;BME280;59900;50.788;12.904;2023-10-09T08:27:29;97738.56;;;13.61;100.00
72038;BME280;59900;50.788;12.904;2023-10-09T08:30:01;97740.56;;;13.59;100.00
72038;BME280;59900;50.788;12.904;2023-10-09T08:32:43;97748.72;;;13.58;100.00
72038;BME280;59900;50.788;12.904;2023-10-09T08:35:29;97759.28;;;13.58;100.00
72038;BME280;59900;50.788;12.904;2023-10-09T08:37:58;97756.06;;;13.56;100.00
72038;BME280;59900;50.788;12.904;2023-10-09T08:40:31;97759.28;;;13.58;100.00
72038;BME280;59900;50.788;12.904;2023-10-09T08:43:08;97733.88;;;13.57;100.00
72038;BME280;59900;50.788;12.904;2023-10-09T08:45:37;97751.97;;;13.60;100.00
72038;BME280;59900;50.788;12.904;2023-10-09T08:48:05;97735.09;;;13.61;100.00
72038;BME280;59900;50.788;12.904;2023-10-09T08:50:32;97742.59;;;13.64;100.00
72038;BME280;59900;50.788;12.904;2023-10-09T08:52:57;97742.59;;;13.64;100.00
72038;BME280;59900;50.788;12.904;2023-10-09T08:55:22;97751.34;;;13.64;100.00
72038;BME280;59900;50.788;12.904;2023-10-09T08:57:48;97749.28;;;13.66;100.00
72038;BME280;59900;50.788;12.904;2023-10-09T09:00:17;97747.47;;;13.67;100.00
72038;BME280;59900;50.788;12.904;2023-10-09T09:02:49;97752.75;;;13.67;100.00
72038;BME280;59900;50.788;12.904;2023-10-09T09:05:18;97749.53;;;13.65;100.00
72038;BME280;59900;50.788;12.904;2023-10-09T09:07:44;97749.31;;;13.60;100.00
72038;BME280;59900;50.788;12.904;2023-10-09T09:10:09;97746.47;;;13.61;100.00
72038;BME280;59900;50.788;12.904;2023-10-09T09:12:44;97751.75;;;13.61;100.00
72038;BME280;59900;50.788;12.904;2023-10-09T09:15:19;97747.88;;;13.64;100.00
72038;BME280;59900;50.788;12.904;2023-10-09T09:17:48;97741.59;;;13.65;100.00
72038;BME280;59900;50.788;12.904;2023-10-09T09:20:20;97738.72;;;13.66;100.00
72038;BME280;59900;50.788;12.904;2023-10-09T09:22:52;97742.34;;;13.72;100.00
72038;BME280;59900;50.788;12.904;2023-10-09T09:25:18;97745.41;;;13.75;100.00
72038;BME280;59900;50.788;12.904;2023-10-09T09:27:49;97730.38;;;13.76;100.00
72038;BME280;59900;50.788;12.904;2023-10-09T09:30:22;97729.13;;;13.78;100.00
72038;BME280;59900;50.788;12.904;2023-10-09T09:32:49;97730.75;;;13.79;100.00
72038;BME280;59900;50.788;12.904;2023-10-09T09:35:35;97728.47;;;13.83;100.00
72038;BME280;59900;50.788;12.904;2023-10-09T09:38:00;97739.66;;;13.85;100.00
72038;BME280;59900;50.788;12.904;2023-10-09T09:40:31;97731.50;;;13.86;100.00
72038;BME280;59900;50.788;12.904;2023-10-09T09:43:01;97734.16;;;13.86;100.00
72038;BME280;59900;50.788;12.904;2023-10-09T09:45:37;97742.09;;;13.86;100.00
72038;BME280;59900;50.788;12.904;2023-10-09T09:48:03;97739.44;;;13.86;100.00
72038;BME280;59900;50.788;12.904;2023-10-09T09:50:35;97760.38;;;13.88;100.00
72038;BME280;59900;50.788;12.904;2023-10-09T09:53:08;97744.72;;;13.86;100.00
72038;BME280;59900;50.788;12.904;2023-10-09T09:55:44;97738.81;;;13.91;100.00
72038;BME280;59900;50.788;12.904;2023-10-09T09:58:18;97738.59;;;13.92;100.00
72038;BME280;59900;50.788;12.904;2023-10-09T10:00:50;97744.31;;;13.89;100.00
72038;BME280;59900;50.788;12.904;2023-10-09T10:03:41;97728.69;;;13.88;100.00
72038;BME280;59900;50.788;12.904;2023-10-09T10:06:09;97743.31;;;13.84;100.00
72038;BME280;59900;50.788;12.904;2023-10-09T10:08:37;97735.81;;;13.81;100.00
72038;BME280;59900;50.788;12.904;2023-10-09T10:11:05;97712.03;;;13.81;100.00
72038;BME280;59900;50.788;12.904;2023-10-09T10:16:12;97707.41;;;13.76;100.00
72038;BME280;59900;50.788;12.904;2023-10-09T10:18:59;97715.31;;;13.76;100.00
72038;BME280;59900;50.788;12.904;2023-10-09T10:21:32;97715.31;;;13.76;100.00
72038;BME280;59900;50.788;12.904;2023-10-09T10:23:58;97716.53;;;13.74;100.00
72038;BME280;59900;50.788;12.904;2023-10-09T10:26:35;97708.03;;;13.72;100.00
72038;BME280;59900;50.788;12.904;2023-10-09T10:29:14;97690.56;;;13.71;100.00
72038;BME280;59900;50.788;12.904;2023-10-09T10:32:02;97686.91;;;13.72;100.00
72038;BME280;59900;50.788;12.904;2023-10-09T10:37:21;97694.66;;;13.67;100.00
72038;BME280;59900;50.788;12.904;2023-10-09T10:39:50;97657.28;;;13.63;100.00
72038;BME280;59900;50.788;12.904;2023-10-09T10:42:16;97636.97;;;13.64;100.00
72038;BME280;59900;50.788;12.904;2023-10-09T10:45:00;97657.28;;;13.63;100.00
72038;BME280;59900;50.788;12.904;2023-10-09T10:47:27;97658.50;;;13.67;100.00
72038;BME280;59900;50.788;12.904;2023-10-09T10:50:01;97654.63;;;13.70;100.00
72038;BME280;59900;50.788;12.904;2023-10-09T10:52:45;97660.47;;;13.72;100.00
72038;BME280;59900;50.788;12.904;2023-10-09T10:55:16;97677.56;;;13.69;100.00
72038;BME280;59900;50.788;12.904;2023-10-09T10:58:24;97671.63;;;13.74;100.00
72038;BME280;59900;50.788;12.904;2023-10-09T11:01:12;97668.22;;;13.73;100.00
72038;BME280;59900;50.788;12.904;2023-10-09T11:03:38;97659.88;;;13.76;100.00
72038;BME280;59900;50.788;12.904;2023-10-09T11:06:30;97665.16;;;13.76;100.00
72038;BME280;59900;50.788;12.904;2023-10-09T11:09:11;97651.72;;;13.78;100.00
72038;BME280;59900;50.788;12.904;2023-10-09T11:11:48;97651.50;;;13.79;100.00
72038;BME280;59900;50.788;12.904;2023-10-09T11:14:14;97639.53;;;13.77;100.00
72038;BME280;59900;50.788;12.904;2023-10-09T11:16:40;97645.84;;;13.76;100.00
72038;BME280;59900;50.788;12.904;2023-10-09T11:19:12;97652.53;;;13.78;100.00
72038;BME280;59900;50.788;12.904;2023-10-09T11:21:54;97641.72;;;13.80;100.00
72038;BME280;59900;50.788;12.904;2023-10-09T11:24:29;97631.56;;;13.83;100.00
72038;BME280;59900;50.788;12.904;2023-10-09T11:27:05;97622.22;;;13.81;100.00
72038;BME280;59900;50.788;12.904;2023-10-09T11:29:35;97606.78;;;13.84;100.00
72038;BME280;59900;50.788;12.904;2023-10-09T11:32:22;97604.13;;;13.84;100.00
72038;BME280;59900;50.788;12.904;2023-10-09T11:35:01;97616.09;;;13.87;100.00
72038;BME280;59900;50.788;12.904;2023-10-09T11:37:35;97605.53;;;13.87;100.00
72038;BME280;59900;50.788;12.904;2023-10-09T11:40:05;97614.03;;;13.89;100.00
72038;BME280;59900;50.788;12.904;2023-10-09T11:42:48;97600.78;;;13.95;100.00
72038;BME280;59900;50.788;12.904;2023-10-09T11:45:22;97597.94;;;13.97;100.00
72038;BME280;59900;50.788;12.904;2023-10-09T11:47:54;97591.84;;;13.96;100.00
72038;BME280;59900;50.788;12.904;2023-10-09T11:50:46;97590.81;;;13.97;100.00
72038;BME280;59900;50.788;12.904;2023-10-09T11:53:44;97604.41;;;14.01;100.00
72038;BME280;59900;50.788;12.904;2023-10-09T11:56:16;97609.25;;;14.04;100.00
72038;BME280;59900;50.788;12.904;2023-10-09T11:58:48;97611.91;;;14.04;100.00
72038;BME280;59900;50.788;12.904;2023-10-09T12:01:18;97597.66;;;14.05;100.00
72038;BME280;59900;50.788;12.904;2023-10-09T12:03:48;97610.06;;;14.04;100.00
72038;BME280;59900;50.788;12.904;2023-10-09T12:06:19;97606.59;;;14.04;100.00
72038;BME280;59900;50.788;12.904;2023-10-09T12:08:47;97602.13;;;14.04;100.00
72038;BME280;59900;50.788;12.904;2023-10-09T12:11:13;97602.94;;;14.05;100.00
72038;BME280;59900;50.788;12.904;2023-10-09T12:13:39;97608.81;;;14.07;100.00
72038;BME280;59900;50.788;12.904;2023-10-09T12:16:07;97610.66;;;14.07;100.00
72038;BME280;59900;50.788;12.904;2023-10-09T12:18:35;97606.19;;;14.07;100.00
72038;BME280;59900;50.788;12.904;2023-10-09T12:21:02;97602.94;;;14.05;100.00
72038;BME280;59900;50.788;12.904;2023-10-09T12:23:28;97600.50;;;14.03;100.00
72038;BME280;59900;50.788;12.904;2023-10-09T12:25:54;97604.41;;;14.01;100.00
72038;BME280;59900;50.788;12.904;2023-10-09T12:28:22;97601.38;;;13.97;100.00
72038;BME280;59900;50.788;12.904;2023-10-09T12:30:49;97614.00;;;13.95;100.00
72038;BME280;59900;50.788;12.904;2023-10-09T12:33:16;97605.47;;;13.93;100.00
72038;BME280;59900;50.788;12.904;2023-10-09T12:35:42;97615.66;;;13.90;100.00
72038;BME280;59900;50.788;12.904;2023-10-09T12:38:10;97612.22;;;13.89;100.00
72038;BME280;59900;50.788;12.904;2023-10-09T12:40:37;97625.66;;;13.88;100.00
72038;BME280;59900;50.788;12.904;2023-10-09T12:43:04;97621.38;;;13.87;100.00
72038;BME280;59900;50.788;12.904;2023-10-09T12:45:33;97620.78;;;13.85;100.00
72038;BME280;59900;50.788;12.904;2023-10-09T12:47:59;97610.44;;;13.83;100.00
72038;BME280;59900;50.788;12.904;2023-10-09T12:50:25;97618.97;;;13.85;100.00
72038;BME280;59900;50.788;12.904;2023-10-09T12:52:56;97627.50;;;13.81;100.00
72038;BME280;59900;50.788;12.904;2023-10-09T12:55:22;97622.47;;;13.79;100.00
72038;BME280;59900;50.788;12.904;2023-10-09T12:57:56;97626.94;;;13.79;100.00
72038;BME280;59900;50.788;12.904;2023-10-09T13:00:26;97619.00;;;13.79;100.00
72038;BME280;59900;50.788;12.904;2023-10-09T13:02:51;97619.00;;;13.79;100.00
72038;BME280;59900;50.788;12.904;2023-10-09T13:05:16;97626.31;;;13.77;100.00
72038;BME280;59900;50.788;12.904;2023-10-09T13:07:51;97625.53;;;13.76;100.00
72038;BME280;59900;50.788;12.904;2023-10-09T13:10:16;97627.56;;;13.74;100.00
72038;BME280;59900;50.788;12.904;2023-10-09T13:12:42;97621.91;;;13.71;100.00
72038;BME280;59900;50.788;12.904;2023-10-09T13:15:08;97628.59;;;13.73;100.00
72038;BME280;59900;50.788;12.904;2023-10-09T13:17:37;97626.97;;;13.72;100.00
72038;BME280;59900;50.788;12.904;2023-10-09T13:20:03;97630.41;;;13.73;100.00
72038;BME280;59900;50.788;12.904;2023-10-09T13:22:38;97631.44;;;13.72;100.00
72038;BME280;59900;50.788;12.904;2023-10-09T13:25:05;97627.19;;;13.71;100.00
72038;BME280;59900;50.788;12.904;2023-10-09T13:27:30;97625.56;;;13.70;100.00
72038;BME280;59900;50.788;12.904;2023-10-09T13:30:00;97630.03;;;13.69;100.00